sensor_id;sensor_type;location;lat;lon;timestamp;temperature;humidity
11091;DHT22;5599;52.210;21.046;2022-08-30T00:10:43;18.40;1.00
11091;DHT22;5599;52.210;21.046;2022-08-30T00:13:13;18.40;1.00
11091;DHT22;5599;52.210;21.046;2022-08-30T00:15:46;18.30;65.90
11091;DHT22;5599;52.210;21.046;2022-08-30T00:18:18;18.30;99.90
11091;DHT22;5599;52.210;21.046;2022-08-30T00:20:51;18.30;99.90
11091;DHT22;5599;52.210;21.046;2022-08-30T00:23:22;18.30;99.90
11091;DHT22;5599;52.210;21.046;2022-08-30T00:25:57;18.20;99.90
11091;DHT22;5599;52.210;21.046;2022-08-30T00:28:29;18.20;99.90
11091;DHT22;5599;52.210;21.046;2022-08-30T00:31:03;18.20;99.90
11091;DHT22;5599;52.210;21.046;2022-08-30T00:33:33;18.10;99.90
11091;DHT22;5599;52.210;21.046;2022-08-30T00:36:03;18.10;99.90
11091;DHT22;5599;52.210;21.046;2022-08-30T00:38:33;18.10;99.90
11091;DHT22;5599;52.210;21.046;2022-08-30T00:41:04;18.10;99.90
11091;DHT22;5599;52.210;21.046;2022-08-30T00:43:34;18.10;99.90
11091;DHT22;5599;52.210;21.046;2022-08-30T00:46:04;18.10;99.90
11091;DHT22;5599;52.210;21.046;2022-08-30T00:48:37;18.10;99.90
11091;DHT22;5599;52.210;21.046;2022-08-30T00:51:10;18.00;99.90
11091;DHT22;5599;52.210;21.046;2022-08-30T00:53:44;18.00;1.00
11091;DHT22;5599;52.210;21.046;2022-08-30T00:56:16;18.00;99.90
11091;DHT22;5599;52.210;21.046;2022-08-30T00:58:49;18.00;99.90
11091;DHT22;5599;52.210;21.046;2022-08-30T01:01:20;18.00;99.90
11091;DHT22;5599;52.210;21.046;2022-08-30T01:03:50;18.00;1.00
11091;DHT22;5599;52.210;21.046;2022-08-30T01:06:20;17.90;1.00
11091;DHT22;5599;52.210;21.046;2022-08-30T01:08:52;17.90;1.00
11091;DHT22;5599;52.210;21.046;2022-08-30T01:11:24;17.90;1.00
11091;DHT22;5599;52.210;21.046;2022-08-30T01:13:54;17.90;1.00
11091;DHT22;5599;52.210;21.046;2022-08-30T01:16:25;17.90;1.00
11091;DHT22;5599;52.210;21.046;2022-08-30T01:18:57;17.90;1.00
11091;DHT22;5599;52.210;21.046;2022-08-30T01:21:31;17.90;1.00
11091;DHT22;5599;52.210;21.046;2022-08-30T01:24:05;17.90;1.00
11091;DHT22;5599;52.210;21.046;2022-08-30T01:26:36;17.90;1.00
11091;DHT22;5599;52.210;21.046;2022-08-30T01:29:08;17.90;1.00
11091;DHT22;5599;52.210;21.046;2022-08-30T01:31:38;17.90;1.00
11091;DHT22;5599;52.210;21.046;2022-08-30T01:34:10;17.80;1.00
11091;DHT22;5599;52.210;21.046;2022-08-30T01:36:43;17.80;1.00
11091;DHT22;5599;52.210;21.046;2022-08-30T01:39:16;17.80;1.00
11091;DHT22;5599;52.210;21.046;2022-08-30T01:41:46;17.80;1.00
11091;DHT22;5599;52.210;21.046;2022-08-30T01:44:16;17.90;1.00
11091;DHT22;5599;52.210;21.046;2022-08-30T01:46:47;17.80;1.00
11091;DHT22;5599;52.210;21.046;2022-08-30T01:49:18;17.80;1.00
11091;DHT22;5599;52.210;21.046;2022-08-30T01:51:54;17.80;1.00
11091;DHT22;5599;52.210;21.046;2022-08-30T01:54:30;17.80;1.00
11091;DHT22;5599;52.210;21.046;2022-08-30T01:57:06;17.80;1.00
11091;DHT22;5599;52.210;21.046;2022-08-30T01:59:40;17.90;1.00
11091;DHT22;5599;52.210;21.046;2022-08-30T02:02:16;17.90;1.00
11091;DHT22;5599;52.210;21.046;2022-08-30T02:04:46;17.80;1.00
11091;DHT22;5599;52.210;21.046;2022-08-30T02:07:16;17.80;1.00
11091;DHT22;5599;52.210;21.046;2022-08-30T02:09:47;17.80;1.00
11091;DHT22;5599;52.210;21.046;2022-08-30T02:12:17;17.90;1.00
11091;DHT22;5599;52.210;21.046;2022-08-30T02:14:47;17.80;1.00
11091;DHT22;5599;52.210;21.046;2022-08-30T02:17:17;17.80;1.00
11091;DHT22;5599;52.210;21.046;2022-08-30T02:19:46;17.80;1.00
11091;DHT22;5599;52.210;21.046;2022-08-30T02:22:16;17.80;1.00
11091;DHT22;5599;52.210;21.046;2022-08-30T02:25:00;17.80;1.00
11091;DHT22;5599;52.210;21.046;2022-08-30T02:27:56;17.90;1.00
11091;DHT22;5599;52.210;21.046;2022-08-30T02:30:54;18.00;1.00
11091;DHT22;5599;52.210;21.046;2022-08-30T02:33:52;17.90;1.00
11091;DHT22;5599;52.210;21.046;2022-08-30T02:36:25;17.80;1.00
11091;DHT22;5599;52.210;21.046;2022-08-30T02:38:55;17.80;1.00
11091;DHT22;5599;52.210;21.046;2022-08-30T02:41:26;17.80;1.00
11091;DHT22;5599;52.210;21.046;2022-08-30T02:43:56;17.90;54.70
11091;DHT22;5599;52.210;21.046;2022-08-30T02:46:27;17.90;19.40
11091;DHT22;5599;52.210;21.046;2022-08-30T02:49:01;17.90;1.00
11091;DHT22;5599;52.210;21.046;2022-08-30T02:51:50;17.90;1.00
11091;DHT22;5599;52.210;21.046;2022-08-30T02:54:20;17.80;1.00
11091;DHT22;5599;52.210;21.046;2022-08-30T02:56:53;17.70;7.20
11091;DHT22;5599;52.210;21.046;2022-08-30T02:59:24;17.70;37.30
11091;DHT22;5599;52.210;21.046;2022-08-30T03:01:53;17.60;90.60
11091;DHT22;5599;52.210;21.046;2022-08-30T03:04:23;17.60;99.90
11091;DHT22;5599;52.210;21.046;2022-08-30T03:06:54;17.50;99.90
11091;DHT22;5599;52.210;21.046;2022-08-30T03:09:23;17.60;99.90
11091;DHT22;5599;52.210;21.046;2022-08-30T03:11:54;17.50;99.90
11091;DHT22;5599;52.210;21.046;2022-08-30T03:14:24;17.60;99.90
11091;DHT22;5599;52.210;21.046;2022-08-30T03:16:55;17.60;99.90
11091;DHT22;5599;52.210;21.046;2022-08-30T03:19:24;17.60;99.90
11091;DHT22;5599;52.210;21.046;2022-08-30T03:21:54;17.50;99.90
11091;DHT22;5599;52.210;21.046;2022-08-30T03:24:23;17.60;99.90
11091;DHT22;5599;52.210;21.046;2022-08-30T03:26:54;17.60;99.90
11091;DHT22;5599;52.210;21.046;2022-08-30T03:29:24;17.70;99.90
11091;DHT22;5599;52.210;21.046;2022-08-30T03:31:54;17.50;99.90
11091;DHT22;5599;52.210;21.046;2022-08-30T03:34:24;17.50;99.90
11091;DHT22;5599;52.210;21.046;2022-08-30T03:36:55;17.50;99.90
11091;DHT22;5599;52.210;21.046;2022-08-30T03:39:25;17.40;99.90
11091;DHT22;5599;52.210;21.046;2022-08-30T03:41:56;17.30;99.90
11091;DHT22;5599;52.210;21.046;2022-08-30T03:44:26;17.40;99.90
11091;DHT22;5599;52.210;21.046;2022-08-30T03:46:55;17.40;99.90
11091;DHT22;5599;52.210;21.046;2022-08-30T03:49:25;17.40;99.90
11091;DHT22;5599;52.210;21.046;2022-08-30T03:51:55;17.40;99.90
11091;DHT22;5599;52.210;21.046;2022-08-30T03:54:24;17.40;99.90
11091;DHT22;5599;52.210;21.046;2022-08-30T03:56:56;17.40;99.90
11091;DHT22;5599;52.210;21.046;2022-08-30T03:59:26;17.40;99.90
11091;DHT22;5599;52.210;21.046;2022-08-30T04:01:58;17.40;99.90
11091;DHT22;5599;52.210;21.046;2022-08-30T04:04:30;17.40;99.90
11091;DHT22;5599;52.210;21.046;2022-08-30T04:06:59;17.60;99.90
11091;DHT22;5599;52.210;21.046;2022-08-30T04:09:29;17.50;99.90
11091;DHT22;5599;52.210;21.046;2022-08-30T04:12:01;17.80;99.90
11091;DHT22;5599;52.210;21.046;2022-08-30T04:14:33;17.60;99.90
11091;DHT22;5599;52.210;21.046;2022-08-30T04:17:02;17.60;99.90
11091;DHT22;5599;52.210;21.046;2022-08-30T04:19:35;17.60;99.90
11091;DHT22;5599;52.210;21.046;2022-08-30T04:22:04;17.70;99.90
11091;DHT22;5599;52.210;21.046;2022-08-30T04:24:34;17.70;99.90
11091;DHT22;5599;52.210;21.046;2022-08-30T04:27:07;17.80;99.90
11091;DHT22;5599;52.210;21.046;2022-08-30T04:29:36;17.80;77.50
11091;DHT22;5599;52.210;21.046;2022-08-30T04:32:06;17.90;42.30
11091;DHT22;5599;52.210;21.046;2022-08-30T04:34:35;17.80;92.50
11091;DHT22;5599;52.210;21.046;2022-08-30T04:37:05;17.80;99.90
11091;DHT22;5599;52.210;21.046;2022-08-30T04:39:36;17.80;99.90
11091;DHT22;5599;52.210;21.046;2022-08-30T04:42:07;17.90;99.90
11091;DHT22;5599;52.210;21.046;2022-08-30T04:44:38;17.90;56.10
11091;DHT22;5599;52.210;21.046;2022-08-30T04:47:08;17.90;71.20
11091;DHT22;5599;52.210;21.046;2022-08-30T04:49:38;17.90;13.80
11091;DHT22;5599;52.210;21.046;2022-08-30T04:52:10;17.90;1.00
11091;DHT22;5599;52.210;21.046;2022-08-30T04:54:41;18.10;7.60
11091;DHT22;5599;52.210;21.046;2022-08-30T04:57:12;18.00;9.50
11091;DHT22;5599;52.210;21.046;2022-08-30T04:59:42;18.00;3.70
11091;DHT22;5599;52.210;21.046;2022-08-30T05:02:12;18.10;1.00
11091;DHT22;5599;52.210;21.046;2022-08-30T05:04:42;18.20;1.00
11091;DHT22;5599;52.210;21.046;2022-08-30T05:07:31;18.20;1.00
11091;DHT22;5599;52.210;21.046;2022-08-30T05:10:02;18.20;1.00
11091;DHT22;5599;52.210;21.046;2022-08-30T05:12:40;18.10;1.00
11091;DHT22;5599;52.210;21.046;2022-08-30T05:15:11;17.90;1.00
11091;DHT22;5599;52.210;21.046;2022-08-30T05:17:41;17.90;1.00
11091;DHT22;5599;52.210;21.046;2022-08-30T05:20:14;18.00;1.00
11091;DHT22;5599;52.210;21.046;2022-08-30T05:22:44;18.10;1.00
11091;DHT22;5599;52.210;21.046;2022-08-30T05:25:22;18.10;1.00
11091;DHT22;5599;52.210;21.046;2022-08-30T05:27:53;18.20;1.00
11091;DHT22;5599;52.210;21.046;2022-08-30T05:30:24;18.30;1.00
11091;DHT22;5599;52.210;21.046;2022-08-30T05:32:54;18.40;1.00
11091;DHT22;5599;52.210;21.046;2022-08-30T05:35:25;18.80;1.00
11091;DHT22;5599;52.210;21.046;2022-08-30T05:37:55;19.00;99.90
11091;DHT22;5599;52.210;21.046;2022-08-30T05:40:25;19.20;99.90
11091;DHT22;5599;52.210;21.046;2022-08-30T05:42:57;19.30;1.00
11091;DHT22;5599;52.210;21.046;2022-08-30T05:45:27;19.30;99.90
11091;DHT22;5599;52.210;21.046;2022-08-30T05:47:57;19.50;6.70
11091;DHT22;5599;52.210;21.046;2022-08-30T05:50:26;19.40;1.00
11091;DHT22;5599;52.210;21.046;2022-08-30T05:52:56;19.40;1.00
11091;DHT22;5599;52.210;21.046;2022-08-30T05:55:25;19.40;1.00
11091;DHT22;5599;52.210;21.046;2022-08-30T05:57:56;19.70;99.90
11091;DHT22;5599;52.210;21.046;2022-08-30T06:00:27;20.40;99.90
11091;DHT22;5599;52.210;21.046;2022-08-30T06:02:58;21.60;4.30
11091;DHT22;5599;52.210;21.046;2022-08-30T06:05:29;22.60;1.00
11091;DHT22;5599;52.210;21.046;2022-08-30T06:08:02;23.00;1.00
11091;DHT22;5599;52.210;21.046;2022-08-30T06:10:32;23.50;1.00
11091;DHT22;5599;52.210;21.046;2022-08-30T06:13:04;24.10;99.90
11091;DHT22;5599;52.210;21.046;2022-08-30T06:15:35;24.80;99.90
11091;DHT22;5599;52.210;21.046;2022-08-30T06:18:05;26.30;99.90
11091;DHT22;5599;52.210;21.046;2022-08-30T06:20:39;27.60;99.90
11091;DHT22;5599;52.210;21.046;2022-08-30T06:23:10;28.30;1.00
11091;DHT22;5599;52.210;21.046;2022-08-30T06:25:43;28.80;1.00
11091;DHT22;5599;52.210;21.046;2022-08-30T06:28:14;28.90;99.90
11091;DHT22;5599;52.210;21.046;2022-08-30T06:30:44;29.00;99.90
11091;DHT22;5599;52.210;21.046;2022-08-30T06:33:14;28.70;1.00
11091;DHT22;5599;52.210;21.046;2022-08-30T06:35:45;28.40;99.90
11091;DHT22;5599;52.210;21.046;2022-08-30T06:38:28;28.60;99.90
11091;DHT22;5599;52.210;21.046;2022-08-30T06:40:57;28.50;1.00
11091;DHT22;5599;52.210;21.046;2022-08-30T06:43:29;28.10;99.90
11091;DHT22;5599;52.210;21.046;2022-08-30T06:46:01;27.40;99.90
11091;DHT22;5599;52.210;21.046;2022-08-30T06:48:31;26.40;1.00
11091;DHT22;5599;52.210;21.046;2022-08-30T06:51:04;25.40;1.00
11091;DHT22;5599;52.210;21.046;2022-08-30T06:53:35;24.80;1.00
11091;DHT22;5599;52.210;21.046;2022-08-30T06:56:08;24.20;1.00
11091;DHT22;5599;52.210;21.046;2022-08-30T06:58:45;23.90;1.00
11091;DHT22;5599;52.210;21.046;2022-08-30T07:01:20;23.70;10.00
11091;DHT22;5599;52.210;21.046;2022-08-30T07:03:55;23.70;99.90
11091;DHT22;5599;52.210;21.046;2022-08-30T07:06:27;23.70;1.00
11091;DHT22;5599;52.210;21.046;2022-08-30T07:08:57;23.50;1.00
11091;DHT22;5599;52.210;21.046;2022-08-30T07:11:32;23.50;1.00
11091;DHT22;5599;52.210;21.046;2022-08-30T07:14:06;23.40;1.00
11091;DHT22;5599;52.210;21.046;2022-08-30T07:16:36;23.20;1.00
11091;DHT22;5599;52.210;21.046;2022-08-30T07:19:06;23.10;1.00
11091;DHT22;5599;52.210;21.046;2022-08-30T07:21:47;23.00;99.90
11091;DHT22;5599;52.210;21.046;2022-08-30T07:24:20;22.80;99.90
11091;DHT22;5599;52.210;21.046;2022-08-30T07:26:50;22.50;99.90
11091;DHT22;5599;52.210;21.046;2022-08-30T07:29:23;22.20;1.00
11091;DHT22;5599;52.210;21.046;2022-08-30T07:31:53;21.90;1.00
11091;DHT22;5599;52.210;21.046;2022-08-30T07:34:23;21.70;1.00
11091;DHT22;5599;52.210;21.046;2022-08-30T07:36:54;21.50;81.90
11091;DHT22;5599;52.210;21.046;2022-08-30T07:39:23;21.40;1.00
11091;DHT22;5599;52.210;21.046;2022-08-30T07:41:58;21.40;1.00
11091;DHT22;5599;52.210;21.046;2022-08-30T07:44:31;21.40;1.00
11091;DHT22;5599;52.210;21.046;2022-08-30T07:47:01;21.70;1.00
11091;DHT22;5599;52.210;21.046;2022-08-30T07:49:31;21.80;99.90
11091;DHT22;5599;52.210;21.046;2022-08-30T07:52:02;22.00;1.00
11091;DHT22;5599;52.210;21.046;2022-08-30T07:54:32;22.00;1.00
11091;DHT22;5599;52.210;21.046;2022-08-30T07:57:03;21.90;99.90
11091;DHT22;5599;52.210;21.046;2022-08-30T07:59:37;21.80;99.90
11091;DHT22;5599;52.210;21.046;2022-08-30T08:02:07;21.80;99.90
11091;DHT22;5599;52.210;21.046;2022-08-30T08:04:37;21.70;99.90
11091;DHT22;5599;52.210;21.046;2022-08-30T08:07:07;21.70;99.90
11091;DHT22;5599;52.210;21.046;2022-08-30T08:09:37;21.70;99.90
11091;DHT22;5599;52.210;21.046;2022-08-30T08:12:08;21.90;99.90
11091;DHT22;5599;52.210;21.046;2022-08-30T08:14:39;22.00;1.00
11091;DHT22;5599;52.210;21.046;2022-08-30T08:17:11;22.20;1.00
11091;DHT22;5599;52.210;21.046;2022-08-30T08:19:41;22.20;93.70
11091;DHT22;5599;52.210;21.046;2022-08-30T08:22:11;22.20;98.80
11091;DHT22;5599;52.210;21.046;2022-08-30T08:24:48;22.10;96.10
11091;DHT22;5599;52.210;21.046;2022-08-30T08:27:19;22.00;1.00
11091;DHT22;5599;52.210;21.046;2022-08-30T08:29:53;22.10;99.90
11091;DHT22;5599;52.210;21.046;2022-08-30T08:32:23;22.30;1.00
11091;DHT22;5599;52.210;21.046;2022-08-30T08:34:53;22.40;1.00
11091;DHT22;5599;52.210;21.046;2022-08-30T08:37:23;22.60;1.00
11091;DHT22;5599;52.210;21.046;2022-08-30T08:39:55;22.70;99.90
11091;DHT22;5599;52.210;21.046;2022-08-30T08:42:34;22.80;1.00
11091;DHT22;5599;52.210;21.046;2022-08-30T08:45:12;22.70;19.60
11091;DHT22;5599;52.210;21.046;2022-08-30T08:47:52;22.80;99.90
11091;DHT22;5599;52.210;21.046;2022-08-30T08:50:23;22.70;99.90
11091;DHT22;5599;52.210;21.046;2022-08-30T08:53:01;22.70;1.00
11091;DHT22;5599;52.210;21.046;2022-08-30T08:56:11;22.80;1.00
11091;DHT22;5599;52.210;21.046;2022-08-30T08:58:44;22.70;1.00
11091;DHT22;5599;52.210;21.046;2022-08-30T09:01:20;22.80;94.10
11091;DHT22;5599;52.210;21.046;2022-08-30T09:03:51;22.90;99.90
11091;DHT22;5599;52.210;21.046;2022-08-30T09:06:39;23.10;39.90
11091;DHT22;5599;52.210;21.046;2022-08-30T09:09:12;23.30;1.00
11091;DHT22;5599;52.210;21.046;2022-08-30T09:11:42;23.50;1.00
11091;DHT22;5599;52.210;21.046;2022-08-30T09:14:17;23.70;1.00
11091;DHT22;5599;52.210;21.046;2022-08-30T09:16:52;24.00;1.00
11091;DHT22;5599;52.210;21.046;2022-08-30T09:19:41;24.10;99.90
11091;DHT22;5599;52.210;21.046;2022-08-30T09:22:21;24.20;1.00
11091;DHT22;5599;52.210;21.046;2022-08-30T09:25:00;24.40;1.00
11091;DHT22;5599;52.210;21.046;2022-08-30T09:27:34;24.40;1.00
11091;DHT22;5599;52.210;21.046;2022-08-30T09:30:07;24.40;1.00
11091;DHT22;5599;52.210;21.046;2022-08-30T09:32:50;24.40;99.90
11091;DHT22;5599;52.210;21.046;2022-08-30T09:35:22;24.20;99.90
11091;DHT22;5599;52.210;21.046;2022-08-30T09:37:55;24.20;1.00
11091;DHT22;5599;52.210;21.046;2022-08-30T09:40:37;24.00;1.00
11091;DHT22;5599;52.210;21.046;2022-08-30T09:43:09;23.90;1.00
11091;DHT22;5599;52.210;21.046;2022-08-30T09:45:42;23.80;1.00
11091;DHT22;5599;52.210;21.046;2022-08-30T09:48:28;23.80;1.00
11091;DHT22;5599;52.210;21.046;2022-08-30T09:51:31;23.90;66.50
11091;DHT22;5599;52.210;21.046;2022-08-30T09:54:14;24.00;99.90
11091;DHT22;5599;52.210;21.046;2022-08-30T09:56:54;24.00;99.90
11091;DHT22;5599;52.210;21.046;2022-08-30T09:59:42;23.90;99.90
11091;DHT22;5599;52.210;21.046;2022-08-30T10:02:46;23.90;1.00
11091;DHT22;5599;52.210;21.046;2022-08-30T10:05:24;24.10;1.00
11091;DHT22;5599;52.210;21.046;2022-08-30T10:08:02;24.20;10.10
11091;DHT22;5599;52.210;21.046;2022-08-30T10:10:48;24.30;1.00
11091;DHT22;5599;52.210;21.046;2022-08-30T10:13:39;24.30;1.00
11091;DHT22;5599;52.210;21.046;2022-08-30T10:16:20;24.20;99.90
11091;DHT22;5599;52.210;21.046;2022-08-30T10:19:04;24.00;1.00
11091;DHT22;5599;52.210;21.046;2022-08-30T10:21:44;23.80;99.90
11091;DHT22;5599;52.210;21.046;2022-08-30T10:24:19;23.70;1.00
11091;DHT22;5599;52.210;21.046;2022-08-30T10:26:53;23.70;99.90
11091;DHT22;5599;52.210;21.046;2022-08-30T10:29:29;23.40;1.00
11091;DHT22;5599;52.210;21.046;2022-08-30T10:32:04;23.20;1.00
11091;DHT22;5599;52.210;21.046;2022-08-30T10:34:38;23.10;1.00
11091;DHT22;5599;52.210;21.046;2022-08-30T10:37:18;23.20;1.00
11091;DHT22;5599;52.210;21.046;2022-08-30T10:39:53;23.50;1.00
11091;DHT22;5599;52.210;21.046;2022-08-30T10:42:31;23.40;1.00
11091;DHT22;5599;52.210;21.046;2022-08-30T10:45:10;23.30;1.00
11091;DHT22;5599;52.210;21.046;2022-08-30T10:47:46;23.30;1.00
11091;DHT22;5599;52.210;21.046;2022-08-30T10:50:22;23.30;1.00
11091;DHT22;5599;52.210;21.046;2022-08-30T10:53:01;23.20;61.50
11091;DHT22;5599;52.210;21.046;2022-08-30T10:55:38;23.20;1.00
11091;DHT22;5599;52.210;21.046;2022-08-30T10:58:17;23.10;1.00
11091;DHT22;5599;52.210;21.046;2022-08-30T11:00:57;23.00;1.00
11091;DHT22;5599;52.210;21.046;2022-08-30T11:06:46;22.70;99.90
11091;DHT22;5599;52.210;21.046;2022-08-30T11:09:35;22.80;1.00
11091;DHT22;5599;52.210;21.046;2022-08-30T11:12:23;22.90;1.00
11091;DHT22;5599;52.210;21.046;2022-08-30T11:14:57;22.80;1.00
11091;DHT22;5599;52.210;21.046;2022-08-30T11:17:36;22.80;1.00
11091;DHT22;5599;52.210;21.046;2022-08-30T11:20:22;22.90;1.00
11091;DHT22;5599;52.210;21.046;2022-08-30T11:23:19;22.90;1.00
11091;DHT22;5599;52.210;21.046;2022-08-30T11:25:53;23.00;1.00
11091;DHT22;5599;52.210;21.046;2022-08-30T11:29:00;22.90;1.00
11091;DHT22;5599;52.210;21.046;2022-08-30T11:31:41;23.00;1.00
11091;DHT22;5599;52.210;21.046;2022-08-30T11:34:58;22.90;1.00
11091;DHT22;5599;52.210;21.046;2022-08-30T11:37:45;22.80;1.00
11091;DHT22;5599;52.210;21.046;2022-08-30T11:40:45;22.80;1.00
11091;DHT22;5599;52.210;21.046;2022-08-30T11:43:49;23.00;1.00
11091;DHT22;5599;52.210;21.046;2022-08-30T11:46:36;23.20;1.00
11091;DHT22;5599;52.210;21.046;2022-08-30T11:49:35;23.10;1.00
11091;DHT22;5599;52.210;21.046;2022-08-30T11:52:35;23.10;1.00
11091;DHT22;5599;52.210;21.046;2022-08-30T11:58:31;23.10;1.00
11091;DHT22;5599;52.210;21.046;2022-08-30T12:01:20;23.30;1.00
11091;DHT22;5599;52.210;21.046;2022-08-30T12:04:27;23.30;1.00
11091;DHT22;5599;52.210;21.046;2022-08-30T12:07:00;23.60;1.00
11091;DHT22;5599;52.210;21.046;2022-08-30T12:10:00;23.80;1.00
11091;DHT22;5599;52.210;21.046;2022-08-30T12:55:55;24.60;1.00
11091;DHT22;5599;52.210;21.046;2022-08-30T12:58:40;24.70;1.00
11091;DHT22;5599;52.210;21.046;2022-08-30T13:01:24;24.80;99.90
11091;DHT22;5599;52.210;21.046;2022-08-30T13:03:59;24.80;1.00
11091;DHT22;5599;52.210;21.046;2022-08-30T13:06:47;24.70;1.00
11091;DHT22;5599;52.210;21.046;2022-08-30T13:09:22;24.40;70.10
11091;DHT22;5599;52.210;21.046;2022-08-30T13:12:03;24.30;1.00
11091;DHT22;5599;52.210;21.046;2022-08-30T13:14:39;24.20;1.00
11091;DHT22;5599;52.210;21.046;2022-08-30T13:17:22;24.20;78.60
11091;DHT22;5599;52.210;21.046;2022-08-30T13:19:59;24.20;34.10
11091;DHT22;5599;52.210;21.046;2022-08-30T13:22:32;24.00;99.90
11091;DHT22;5599;52.210;21.046;2022-08-30T13:25:04;24.00;99.90
11091;DHT22;5599;52.210;21.046;2022-08-30T13:27:38;23.90;1.00
11091;DHT22;5599;52.210;21.046;2022-08-30T13:30:12;23.70;99.90
11091;DHT22;5599;52.210;21.046;2022-08-30T13:32:44;23.50;1.00
11091;DHT22;5599;52.210;21.046;2022-08-30T13:35:19;23.50;1.00
11091;DHT22;5599;52.210;21.046;2022-08-30T13:37:53;23.50;7.10
11091;DHT22;5599;52.210;21.046;2022-08-30T13:40:29;23.30;1.00
11091;DHT22;5599;52.210;21.046;2022-08-30T13:43:00;23.30;1.00
11091;DHT22;5599;52.210;21.046;2022-08-30T13:45:36;23.30;99.90
11091;DHT22;5599;52.210;21.046;2022-08-30T13:48:09;23.30;1.00
11091;DHT22;5599;52.210;21.046;2022-08-30T13:50:43;23.30;99.90
11091;DHT22;5599;52.210;21.046;2022-08-30T13:53:14;23.30;99.90
11091;DHT22;5599;52.210;21.046;2022-08-30T13:56:08;23.20;1.00
11091;DHT22;5599;52.210;21.046;2022-08-30T13:58:43;23.20;99.90
11091;DHT22;5599;52.210;21.046;2022-08-30T14:01:16;23.20;1.00
11091;DHT22;5599;52.210;21.046;2022-08-30T14:03:47;23.20;86.40
11091;DHT22;5599;52.210;21.046;2022-08-30T14:06:41;23.30;1.00
11091;DHT22;5599;52.210;21.046;2022-08-30T14:54:44;23.30;99.90
11091;DHT22;5599;52.210;21.046;2022-08-30T14:57:32;23.20;1.00
11091;DHT22;5599;52.210;21.046;2022-08-30T15:00:07;23.20;27.40
11091;DHT22;5599;52.210;21.046;2022-08-30T15:02:37;23.00;99.90
11091;DHT22;5599;52.210;21.046;2022-08-30T15:05:11;23.00;1.00
11091;DHT22;5599;52.210;21.046;2022-08-30T15:07:41;22.90;1.00
11091;DHT22;5599;52.210;21.046;2022-08-30T15:10:12;22.80;99.90
11091;DHT22;5599;52.210;21.046;2022-08-30T15:12:42;22.80;1.00
11091;DHT22;5599;52.210;21.046;2022-08-30T15:15:17;22.60;1.00
11091;DHT22;5599;52.210;21.046;2022-08-30T15:17:58;22.50;1.00
11091;DHT22;5599;52.210;21.046;2022-08-30T15:20:31;22.40;1.00
11091;DHT22;5599;52.210;21.046;2022-08-30T15:23:02;22.30;99.90
11091;DHT22;5599;52.210;21.046;2022-08-30T15:25:34;21.80;99.90
11091;DHT22;5599;52.210;21.046;2022-08-30T15:28:11;21.60;1.00
11091;DHT22;5599;52.210;21.046;2022-08-30T15:30:44;21.60;99.90
11091;DHT22;5599;52.210;21.046;2022-08-30T15:33:16;21.60;1.00
11091;DHT22;5599;52.210;21.046;2022-08-30T15:35:46;21.70;1.00
11091;DHT22;5599;52.210;21.046;2022-08-30T15:38:16;21.70;1.00
11091;DHT22;5599;52.210;21.046;2022-08-30T15:40:52;21.70;99.90
11091;DHT22;5599;52.210;21.046;2022-08-30T15:43:34;21.60;99.90
11091;DHT22;5599;52.210;21.046;2022-08-30T15:46:17;21.40;99.90
11091;DHT22;5599;52.210;21.046;2022-08-30T15:48:51;21.30;1.00
11091;DHT22;5599;52.210;21.046;2022-08-30T15:51:23;21.10;1.00
11091;DHT22;5599;52.210;21.046;2022-08-30T15:53:54;20.90;1.00
11091;DHT22;5599;52.210;21.046;2022-08-30T15:56:29;21.00;1.00
11091;DHT22;5599;52.210;21.046;2022-08-30T15:58:59;21.00;1.00
11091;DHT22;5599;52.210;21.046;2022-08-30T16:01:30;20.90;1.00
11091;DHT22;5599;52.210;21.046;2022-08-30T16:04:03;20.80;99.90
11091;DHT22;5599;52.210;21.046;2022-08-30T16:06:41;20.90;99.90
11091;DHT22;5599;52.210;21.046;2022-08-30T16:09:15;21.00;1.00
11091;DHT22;5599;52.210;21.046;2022-08-30T16:11:47;21.10;1.00
11091;DHT22;5599;52.210;21.046;2022-08-30T16:14:18;21.10;1.00
11091;DHT22;5599;52.210;21.046;2022-08-30T16:16:48;21.10;1.00
11091;DHT22;5599;52.210;21.046;2022-08-30T16:19:21;21.20;30.00
11091;DHT22;5599;52.210;21.046;2022-08-30T16:21:52;21.30;99.90
11091;DHT22;5599;52.210;21.046;2022-08-30T16:24:23;21.40;51.20
11091;DHT22;5599;52.210;21.046;2022-08-30T16:26:57;21.40;1.00
11091;DHT22;5599;52.210;21.046;2022-08-30T16:29:26;21.40;1.00
11091;DHT22;5599;52.210;21.046;2022-08-30T16:31:56;21.40;99.90
11091;DHT22;5599;52.210;21.046;2022-08-30T16:34:26;21.30;1.00
11091;DHT22;5599;52.210;21.046;2022-08-30T16:37:00;21.20;1.00
11091;DHT22;5599;52.210;21.046;2022-08-30T16:39:30;21.40;1.00
11091;DHT22;5599;52.210;21.046;2022-08-30T16:42:01;21.50;1.00
11091;DHT22;5599;52.210;21.046;2022-08-30T16:44:33;21.40;1.00
11091;DHT22;5599;52.210;21.046;2022-08-30T16:47:04;21.40;1.00
11091;DHT22;5599;52.210;21.046;2022-08-30T16:49:42;21.40;21.90
11091;DHT22;5599;52.210;21.046;2022-08-30T16:52:13;21.40;1.00
11091;DHT22;5599;52.210;21.046;2022-08-30T16:54:46;21.30;1.00
11091;DHT22;5599;52.210;21.046;2022-08-30T16:57:20;21.20;1.00
11091;DHT22;5599;52.210;21.046;2022-08-30T16:59:51;21.10;1.00
11091;DHT22;5599;52.210;21.046;2022-08-30T17:02:22;21.10;1.00
11091;DHT22;5599;52.210;21.046;2022-08-30T17:04:55;21.20;1.00
11091;DHT22;5599;52.210;21.046;2022-08-30T17:07:29;21.20;1.00
11091;DHT22;5599;52.210;21.046;2022-08-30T17:10:10;21.20;1.00
11091;DHT22;5599;52.210;21.046;2022-08-30T17:12:44;21.30;1.00
11091;DHT22;5599;52.210;21.046;2022-08-30T17:15:16;21.30;1.00
11091;DHT22;5599;52.210;21.046;2022-08-30T17:17:50;21.20;1.00
11091;DHT22;5599;52.210;21.046;2022-08-30T17:20:22;21.10;1.00
11091;DHT22;5599;52.210;21.046;2022-08-30T17:22:54;21.00;1.00
11091;DHT22;5599;52.210;21.046;2022-08-30T17:25:29;21.10;1.00
11091;DHT22;5599;52.210;21.046;2022-08-30T17:28:03;21.10;1.00
11091;DHT22;5599;52.210;21.046;2022-08-30T17:30:35;21.10;1.00
11091;DHT22;5599;52.210;21.046;2022-08-30T17:33:07;21.10;1.00
11091;DHT22;5599;52.210;21.046;2022-08-30T17:35:39;21.20;1.00
11091;DHT22;5599;52.210;21.046;2022-08-30T17:38:10;20.90;62.80
11091;DHT22;5599;52.210;21.046;2022-08-30T17:40:41;20.80;1.00
11091;DHT22;5599;52.210;21.046;2022-08-30T17:43:14;20.80;1.00
11091;DHT22;5599;52.210;21.046;2022-08-30T17:45:45;20.80;8.70
11091;DHT22;5599;52.210;21.046;2022-08-30T17:48:19;20.70;48.00
11091;DHT22;5599;52.210;21.046;2022-08-30T17:50:54;20.70;1.00
11091;DHT22;5599;52.210;21.046;2022-08-30T17:53:25;20.60;98.30
11091;DHT22;5599;52.210;21.046;2022-08-30T17:55:55;20.50;99.90
11091;DHT22;5599;52.210;21.046;2022-08-30T17:58:29;20.50;74.60
11091;DHT22;5599;52.210;21.046;2022-08-30T18:01:07;20.30;99.90
11091;DHT22;5599;52.210;21.046;2022-08-30T18:03:40;20.30;99.90
11091;DHT22;5599;52.210;21.046;2022-08-30T18:06:12;20.30;99.90
11091;DHT22;5599;52.210;21.046;2022-08-30T18:08:43;20.20;99.90
11091;DHT22;5599;52.210;21.046;2022-08-30T18:11:14;20.20;99.90